sensor_id;sensor_type;location;lat;lon;timestamp;P1;durP1;ratioP1;P2;durP2;ratioP2
61960;SDS011;47923;42.506;24.192;2022-11-20T00:00:55;20.88;;;15.65;;
61960;SDS011;47923;42.506;24.192;2022-11-20T00:03:20;21.17;;;16.30;;
61960;SDS011;47923;42.506;24.192;2022-11-20T00:05:46;21.52;;;17.15;;
61960;SDS011;47923;42.506;24.192;2022-11-20T00:08:12;22.15;;;16.63;;
61960;SDS011;47923;42.506;24.192;2022-11-20T00:10:39;20.52;;;14.27;;
61960;SDS011;47923;42.506;24.192;2022-11-20T00:13:05;20.17;;;15.48;;
61960;SDS011;47923;42.506;24.192;2022-11-20T00:15:32;20.08;;;14.15;;
61960;SDS011;47923;42.506;24.192;2022-11-20T00:17:59;22.55;;;14.63;;
61960;SDS011;47923;42.506;24.192;2022-11-20T00:20:24;17.92;;;10.77;;
61960;SDS011;47923;42.506;24.192;2022-11-20T00:22:50;17.27;;;11.35;;
61960;SDS011;47923;42.506;24.192;2022-11-20T00:25:16;25.13;;;17.00;;
61960;SDS011;47923;42.506;24.192;2022-11-20T00:27:45;24.73;;;16.83;;
61960;SDS011;47923;42.506;24.192;2022-11-20T00:30:11;26.83;;;18.73;;
61960;SDS011;47923;42.506;24.192;2022-11-20T00:32:36;23.60;;;15.52;;
61960;SDS011;47923;42.506;24.192;2022-11-20T00:35:02;22.20;;;14.73;;
61960;SDS011;47923;42.506;24.192;2022-11-20T00:37:28;22.23;;;14.05;;
61960;SDS011;47923;42.506;24.192;2022-11-20T00:39:54;20.08;;;13.10;;
61960;SDS011;47923;42.506;24.192;2022-11-20T00:42:20;20.02;;;14.73;;
61960;SDS011;47923;42.506;24.192;2022-11-20T00:44:45;25.45;;;17.13;;
61960;SDS011;47923;42.506;24.192;2022-11-20T00:47:11;18.70;;;13.30;;
61960;SDS011;47923;42.506;24.192;2022-11-20T00:49:37;15.23;;;9.05;;
61960;SDS011;47923;42.506;24.192;2022-11-20T00:52:02;13.57;;;8.10;;
61960;SDS011;47923;42.506;24.192;2022-11-20T00:54:28;22.80;;;16.73;;
61960;SDS011;47923;42.506;24.192;2022-11-20T00:56:54;20.00;;;15.05;;
61960;SDS011;47923;42.506;24.192;2022-11-20T00:59:20;27.23;;;20.15;;
61960;SDS011;47923;42.506;24.192;2022-11-20T01:01:46;24.88;;;17.80;;
61960;SDS011;47923;42.506;24.192;2022-11-20T01:04:11;23.42;;;16.00;;
61960;SDS011;47923;42.506;24.192;2022-11-20T01:06:37;13.57;;;9.32;;
61960;SDS011;47923;42.506;24.192;2022-11-20T01:09:06;14.48;;;7.03;;
61960;SDS011;47923;42.506;24.192;2022-11-20T01:11:35;11.30;;;6.60;;
61960;SDS011;47923;42.506;24.192;2022-11-20T01:14:04;11.93;;;6.32;;
61960;SDS011;47923;42.506;24.192;2022-11-20T01:16:32;12.73;;;6.43;;
61960;SDS011;47923;42.506;24.192;2022-11-20T01:19:04;14.90;;;8.50;;
61960;SDS011;47923;42.506;24.192;2022-11-20T01:21:32;13.75;;;7.82;;
61960;SDS011;47923;42.506;24.192;2022-11-20T01:24:01;12.68;;;8.70;;
61960;SDS011;47923;42.506;24.192;2022-11-20T01:26:32;11.60;;;8.05;;
61960;SDS011;47923;42.506;24.192;2022-11-20T01:29:00;12.18;;;7.93;;
61960;SDS011;47923;42.506;24.192;2022-11-20T01:31:31;14.93;;;7.20;;
61960;SDS011;47923;42.506;24.192;2022-11-20T01:33:59;15.07;;;8.35;;
61960;SDS011;47923;42.506;24.192;2022-11-20T01:36:30;18.23;;;9.00;;
61960;SDS011;47923;42.506;24.192;2022-11-20T01:38:57;17.35;;;9.73;;
61960;SDS011;47923;42.506;24.192;2022-11-20T01:41:25;24.42;;;13.02;;
61960;SDS011;47923;42.506;24.192;2022-11-20T01:44:12;20.42;;;11.48;;
61960;SDS011;47923;42.506;24.192;2022-11-20T01:46:42;20.52;;;11.52;;
61960;SDS011;47923;42.506;24.192;2022-11-20T01:49:30;18.73;;;11.95;;
61960;SDS011;47923;42.506;24.192;2022-11-20T01:52:00;18.65;;;9.88;;
61960;SDS011;47923;42.506;24.192;2022-11-20T01:54:31;18.70;;;13.88;;
61960;SDS011;47923;42.506;24.192;2022-11-20T01:57:04;16.75;;;12.35;;
61960;SDS011;47923;42.506;24.192;2022-11-20T01:59:34;18.42;;;13.48;;
61960;SDS011;47923;42.506;24.192;2022-11-20T02:02:06;16.40;;;12.18;;
61960;SDS011;47923;42.506;24.192;2022-11-20T02:04:31;18.23;;;13.95;;
61960;SDS011;47923;42.506;24.192;2022-11-20T02:07:01;15.93;;;12.10;;
61960;SDS011;47923;42.506;24.192;2022-11-20T02:09:29;17.35;;;12.23;;
61960;SDS011;47923;42.506;24.192;2022-11-20T02:11:55;17.33;;;12.60;;
61960;SDS011;47923;42.506;24.192;2022-11-20T02:14:23;16.27;;;13.63;;
61960;SDS011;47923;42.506;24.192;2022-11-20T02:16:49;19.20;;;12.88;;
61960;SDS011;47923;42.506;24.192;2022-11-20T02:19:22;16.15;;;10.25;;
61960;SDS011;47923;42.506;24.192;2022-11-20T02:21:56;14.23;;;8.10;;
61960;SDS011;47923;42.506;24.192;2022-11-20T02:24:27;13.70;;;6.72;;
61960;SDS011;47923;42.506;24.192;2022-11-20T02:26:54;9.90;;;5.47;;
61960;SDS011;47923;42.506;24.192;2022-11-20T02:29:40;11.07;;;5.78;;
61960;SDS011;47923;42.506;24.192;2022-11-20T02:34:49;10.40;;;4.90;;
61960;SDS011;47923;42.506;24.192;2022-11-20T02:37:15;10.07;;;4.40;;
61960;SDS011;47923;42.506;24.192;2022-11-20T02:39:41;11.95;;;4.97;;
61960;SDS011;47923;42.506;24.192;2022-11-20T02:42:09;9.55;;;4.82;;
61960;SDS011;47923;42.506;24.192;2022-11-20T02:44:35;9.15;;;4.57;;
61960;SDS011;47923;42.506;24.192;2022-11-20T02:47:01;10.50;;;5.10;;
61960;SDS011;47923;42.506;24.192;2022-11-20T02:49:27;15.02;;;5.45;;
61960;SDS011;47923;42.506;24.192;2022-11-20T02:51:52;13.30;;;5.38;;
61960;SDS011;47923;42.506;24.192;2022-11-20T02:54:18;20.00;;;9.93;;
61960;SDS011;47923;42.506;24.192;2022-11-20T02:56:44;13.23;;;7.20;;
61960;SDS011;47923;42.506;24.192;2022-11-20T02:59:10;10.30;;;6.53;;
61960;SDS011;47923;42.506;24.192;2022-11-20T03:01:36;11.32;;;5.95;;
61960;SDS011;47923;42.506;24.192;2022-11-20T03:04:02;17.10;;;8.65;;
61960;SDS011;47923;42.506;24.192;2022-11-20T03:06:28;14.10;;;9.23;;
61960;SDS011;47923;42.506;24.192;2022-11-20T03:08:53;14.02;;;8.93;;
61960;SDS011;47923;42.506;24.192;2022-11-20T03:11:19;14.55;;;8.15;;
61960;SDS011;47923;42.506;24.192;2022-11-20T03:13:45;14.27;;;8.80;;
61960;SDS011;47923;42.506;24.192;2022-11-20T03:16:18;14.80;;;7.97;;
61960;SDS011;47923;42.506;24.192;2022-11-20T03:18:45;13.98;;;7.10;;
61960;SDS011;47923;42.506;24.192;2022-11-20T03:21:11;13.77;;;4.97;;
61960;SDS011;47923;42.506;24.192;2022-11-20T03:23:39;10.35;;;4.78;;
61960;SDS011;47923;42.506;24.192;2022-11-20T03:28:33;9.57;;;3.78;;
61960;SDS011;47923;42.506;24.192;2022-11-20T03:31:04;10.30;;;5.10;;
61960;SDS011;47923;42.506;24.192;2022-11-20T03:33:37;10.93;;;5.38;;
61960;SDS011;47923;42.506;24.192;2022-11-20T03:36:04;11.80;;;5.30;;
61960;SDS011;47923;42.506;24.192;2022-11-20T03:38:31;11.38;;;4.93;;
61960;SDS011;47923;42.506;24.192;2022-11-20T03:41:04;12.85;;;5.53;;
61960;SDS011;47923;42.506;24.192;2022-11-20T03:43:31;9.23;;;3.22;;
61960;SDS011;47923;42.506;24.192;2022-11-20T03:45:58;10.88;;;3.78;;
61960;SDS011;47923;42.506;24.192;2022-11-20T03:48:24;12.18;;;4.93;;
61960;SDS011;47923;42.506;24.192;2022-11-20T03:50:51;13.23;;;4.80;;
61960;SDS011;47923;42.506;24.192;2022-11-20T03:53:17;10.07;;;4.20;;
61960;SDS011;47923;42.506;24.192;2022-11-20T03:55:43;11.00;;;4.95;;
61960;SDS011;47923;42.506;24.192;2022-11-20T03:58:09;11.10;;;4.47;;
61960;SDS011;47923;42.506;24.192;2022-11-20T04:00:35;7.47;;;2.92;;
61960;SDS011;47923;42.506;24.192;2022-11-20T04:03:01;8.90;;;3.75;;
61960;SDS011;47923;42.506;24.192;2022-11-20T04:05:27;11.57;;;4.20;;
61960;SDS011;47923;42.506;24.192;2022-11-20T04:07:53;7.47;;;3.42;;
61960;SDS011;47923;42.506;24.192;2022-11-20T04:10:19;7.55;;;3.85;;
61960;SDS011;47923;42.506;24.192;2022-11-20T04:12:45;11.07;;;4.00;;
61960;SDS011;47923;42.506;24.192;2022-11-20T04:15:11;10.13;;;4.28;;
61960;SDS011;47923;42.506;24.192;2022-11-20T04:17:36;9.60;;;4.55;;
61960;SDS011;47923;42.506;24.192;2022-11-20T04:20:02;13.90;;;5.85;;
61960;SDS011;47923;42.506;24.192;2022-11-20T04:22:28;13.75;;;5.70;;
61960;SDS011;47923;42.506;24.192;2022-11-20T04:24:54;15.20;;;8.25;;
61960;SDS011;47923;42.506;24.192;2022-11-20T04:27:20;13.82;;;7.28;;
61960;SDS011;47923;42.506;24.192;2022-11-20T04:29:46;11.93;;;6.18;;
61960;SDS011;47923;42.506;24.192;2022-11-20T04:32:12;12.60;;;6.50;;
61960;SDS011;47923;42.506;24.192;2022-11-20T04:34:37;14.82;;;7.75;;
61960;SDS011;47923;42.506;24.192;2022-11-20T04:37:03;13.70;;;6.90;;
61960;SDS011;47923;42.506;24.192;2022-11-20T04:39:29;11.85;;;6.30;;
61960;SDS011;47923;42.506;24.192;2022-11-20T04:41:55;11.77;;;6.93;;
61960;SDS011;47923;42.506;24.192;2022-11-20T04:44:39;15.90;;;8.50;;
61960;SDS011;47923;42.506;24.192;2022-11-20T04:47:05;14.43;;;7.75;;
61960;SDS011;47923;42.506;24.192;2022-11-20T04:49:31;13.07;;;6.85;;
61960;SDS011;47923;42.506;24.192;2022-11-20T04:51:57;15.43;;;7.85;;
61960;SDS011;47923;42.506;24.192;2022-11-20T04:54:23;17.13;;;12.02;;
61960;SDS011;47923;42.506;24.192;2022-11-20T04:56:49;13.20;;;9.43;;
61960;SDS011;47923;42.506;24.192;2022-11-20T04:59:15;15.43;;;9.38;;
61960;SDS011;47923;42.506;24.192;2022-11-20T05:01:41;13.43;;;9.82;;
61960;SDS011;47923;42.506;24.192;2022-11-20T05:04:06;13.65;;;8.93;;
61960;SDS011;47923;42.506;24.192;2022-11-20T05:06:32;16.50;;;9.27;;
61960;SDS011;47923;42.506;24.192;2022-11-20T05:08:59;21.48;;;14.43;;
61960;SDS011;47923;42.506;24.192;2022-11-20T05:11:26;17.38;;;12.10;;
61960;SDS011;47923;42.506;24.192;2022-11-20T05:13:54;14.73;;;10.50;;
61960;SDS011;47923;42.506;24.192;2022-11-20T05:16:21;20.48;;;12.07;;
61960;SDS011;47923;42.506;24.192;2022-11-20T05:18:48;18.58;;;13.23;;
61960;SDS011;47923;42.506;24.192;2022-11-20T05:21:14;19.17;;;14.70;;
61960;SDS011;47923;42.506;24.192;2022-11-20T05:23:41;24.30;;;16.45;;
61960;SDS011;47923;42.506;24.192;2022-11-20T05:26:08;23.73;;;18.13;;
61960;SDS011;47923;42.506;24.192;2022-11-20T05:28:37;28.45;;;23.05;;
61960;SDS011;47923;42.506;24.192;2022-11-20T05:31:10;24.02;;;16.45;;
61960;SDS011;47923;42.506;24.192;2022-11-20T05:33:39;30.50;;;24.23;;
61960;SDS011;47923;42.506;24.192;2022-11-20T05:36:06;29.33;;;21.15;;
61960;SDS011;47923;42.506;24.192;2022-11-20T05:38:33;27.55;;;24.42;;
61960;SDS011;47923;42.506;24.192;2022-11-20T05:43:35;26.15;;;21.83;;
61960;SDS011;47923;42.506;24.192;2022-11-20T05:46:03;24.65;;;21.20;;
61960;SDS011;47923;42.506;24.192;2022-11-20T05:48:29;32.97;;;26.60;;
61960;SDS011;47923;42.506;24.192;2022-11-20T05:50:59;37.15;;;32.13;;
61960;SDS011;47923;42.506;24.192;2022-11-20T05:53:26;34.33;;;28.27;;
61960;SDS011;47923;42.506;24.192;2022-11-20T05:56:03;32.10;;;26.55;;
61960;SDS011;47923;42.506;24.192;2022-11-20T05:58:30;30.05;;;24.73;;
61960;SDS011;47923;42.506;24.192;2022-11-20T06:01:30;33.08;;;25.85;;
61960;SDS011;47923;42.506;24.192;2022-11-20T06:03:50;30.27;;;25.95;;
61960;SDS011;47923;42.506;24.192;2022-11-20T06:06:17;26.42;;;20.33;;
61960;SDS011;47923;42.506;24.192;2022-11-20T06:08:44;24.77;;;19.67;;
61960;SDS011;47923;42.506;24.192;2022-11-20T06:11:11;24.27;;;19.50;;
61960;SDS011;47923;42.506;24.192;2022-11-20T06:13:40;27.38;;;21.33;;
61960;SDS011;47923;42.506;24.192;2022-11-20T06:16:06;31.83;;;19.60;;
61960;SDS011;47923;42.506;24.192;2022-11-20T06:18:32;28.02;;;17.67;;
61960;SDS011;47923;42.506;24.192;2022-11-20T06:20:59;27.98;;;19.67;;
61960;SDS011;47923;42.506;24.192;2022-11-20T06:23:27;23.65;;;17.55;;
61960;SDS011;47923;42.506;24.192;2022-11-20T06:25:54;32.30;;;21.27;;
61960;SDS011;47923;42.506;24.192;2022-11-20T06:28:20;52.20;;;39.03;;
61960;SDS011;47923;42.506;24.192;2022-11-20T06:30:47;61.20;;;48.53;;
61960;SDS011;47923;42.506;24.192;2022-11-20T06:33:13;58.72;;;46.28;;
61960;SDS011;47923;42.506;24.192;2022-11-20T06:35:38;52.35;;;38.63;;
61960;SDS011;47923;42.506;24.192;2022-11-20T06:38:04;46.55;;;37.75;;
61960;SDS011;47923;42.506;24.192;2022-11-20T06:40:30;46.10;;;38.88;;
61960;SDS011;47923;42.506;24.192;2022-11-20T06:42:56;42.80;;;35.03;;
61960;SDS011;47923;42.506;24.192;2022-11-20T06:45:22;47.92;;;38.25;;
61960;SDS011;47923;42.506;24.192;2022-11-20T06:47:48;44.15;;;36.50;;
61960;SDS011;47923;42.506;24.192;2022-11-20T06:50:13;46.20;;;36.38;;
61960;SDS011;47923;42.506;24.192;2022-11-20T06:52:39;52.60;;;40.63;;
61960;SDS011;47923;42.506;24.192;2022-11-20T06:55:06;44.40;;;36.08;;
61960;SDS011;47923;42.506;24.192;2022-11-20T06:57:32;47.30;;;38.60;;
61960;SDS011;47923;42.506;24.192;2022-11-20T07:00:07;45.75;;;37.75;;
61960;SDS011;47923;42.506;24.192;2022-11-20T07:02:33;50.38;;;39.58;;
61960;SDS011;47923;42.506;24.192;2022-11-20T07:04:59;47.63;;;37.42;;
61960;SDS011;47923;42.506;24.192;2022-11-20T07:07:25;39.13;;;31.20;;
61960;SDS011;47923;42.506;24.192;2022-11-20T07:09:51;70.60;;;47.33;;
61960;SDS011;47923;42.506;24.192;2022-11-20T07:12:17;63.35;;;45.85;;
61960;SDS011;47923;42.506;24.192;2022-11-20T07:14:43;50.85;;;39.03;;
61960;SDS011;47923;42.506;24.192;2022-11-20T07:17:09;34.40;;;26.08;;
61960;SDS011;47923;42.506;24.192;2022-11-20T07:19:35;21.20;;;18.25;;
61960;SDS011;47923;42.506;24.192;2022-11-20T07:22:00;30.55;;;25.73;;
61960;SDS011;47923;42.506;24.192;2022-11-20T07:24:26;30.35;;;24.15;;
61960;SDS011;47923;42.506;24.192;2022-11-20T07:26:52;39.05;;;34.08;;
61960;SDS011;47923;42.506;24.192;2022-11-20T07:29:17;35.50;;;27.33;;
61960;SDS011;47923;42.506;24.192;2022-11-20T07:31:43;31.65;;;25.00;;
61960;SDS011;47923;42.506;24.192;2022-11-20T07:34:09;50.05;;;44.67;;
61960;SDS011;47923;42.506;24.192;2022-11-20T07:36:35;56.08;;;49.90;;
61960;SDS011;47923;42.506;24.192;2022-11-20T07:39:00;36.80;;;32.80;;
61960;SDS011;47923;42.506;24.192;2022-11-20T07:41:27;38.28;;;30.70;;
61960;SDS011;47923;42.506;24.192;2022-11-20T07:43:55;43.05;;;34.83;;
61960;SDS011;47923;42.506;24.192;2022-11-20T07:46:21;39.22;;;26.15;;
61960;SDS011;47923;42.506;24.192;2022-11-20T07:48:46;41.22;;;31.17;;
61960;SDS011;47923;42.506;24.192;2022-11-20T07:51:12;33.38;;;26.73;;
61960;SDS011;47923;42.506;24.192;2022-11-20T07:53:38;38.05;;;26.65;;
61960;SDS011;47923;42.506;24.192;2022-11-20T07:56:04;36.10;;;28.33;;
61960;SDS011;47923;42.506;24.192;2022-11-20T07:58:31;39.08;;;26.17;;
61960;SDS011;47923;42.506;24.192;2022-11-20T08:01:01;37.20;;;27.13;;
61960;SDS011;47923;42.506;24.192;2022-11-20T08:03:29;23.13;;;16.58;;
61960;SDS011;47923;42.506;24.192;2022-11-20T08:05:56;30.80;;;20.52;;
61960;SDS011;47923;42.506;24.192;2022-11-20T08:08:25;21.77;;;10.27;;
61960;SDS011;47923;42.506;24.192;2022-11-20T08:10:51;17.33;;;9.85;;
61960;SDS011;47923;42.506;24.192;2022-11-20T08:13:17;18.20;;;7.45;;
61960;SDS011;47923;42.506;24.192;2022-11-20T08:16:01;13.15;;;7.70;;
61960;SDS011;47923;42.506;24.192;2022-11-20T08:18:27;15.68;;;9.50;;
61960;SDS011;47923;42.506;24.192;2022-11-20T08:20:53;14.30;;;8.05;;
61960;SDS011;47923;42.506;24.192;2022-11-20T08:23:19;17.23;;;6.95;;
61960;SDS011;47923;42.506;24.192;2022-11-20T08:25:48;9.73;;;4.65;;
61960;SDS011;47923;42.506;24.192;2022-11-20T08:28:14;11.10;;;6.38;;
61960;SDS011;47923;42.506;24.192;2022-11-20T08:30:40;10.43;;;3.97;;
61960;SDS011;47923;42.506;24.192;2022-11-20T08:33:06;5.20;;;2.03;;
61960;SDS011;47923;42.506;24.192;2022-11-20T08:35:34;8.40;;;1.98;;
61960;SDS011;47923;42.506;24.192;2022-11-20T08:38:01;5.80;;;2.47;;
61960;SDS011;47923;42.506;24.192;2022-11-20T08:40:27;7.63;;;2.65;;
61960;SDS011;47923;42.506;24.192;2022-11-20T08:42:53;6.43;;;1.77;;
61960;SDS011;47923;42.506;24.192;2022-11-20T08:45:19;5.93;;;1.70;;
61960;SDS011;47923;42.506;24.192;2022-11-20T08:47:45;7.47;;;1.65;;
61960;SDS011;47923;42.506;24.192;2022-11-20T08:50:12;6.45;;;1.95;;
61960;SDS011;47923;42.506;24.192;2022-11-20T08:52:39;6.85;;;1.85;;
61960;SDS011;47923;42.506;24.192;2022-11-20T08:55:05;6.35;;;1.92;;
61960;SDS011;47923;42.506;24.192;2022-11-20T08:57:32;5.22;;;1.77;;
61960;SDS011;47923;42.506;24.192;2022-11-20T09:00:03;9.13;;;2.10;;
61960;SDS011;47923;42.506;24.192;2022-11-20T09:02:30;5.97;;;2.10;;
61960;SDS011;47923;42.506;24.192;2022-11-20T09:04:57;4.90;;;1.92;;
61960;SDS011;47923;42.506;24.192;2022-11-20T09:07:23;8.75;;;1.77;;
61960;SDS011;47923;42.506;24.192;2022-11-20T09:09:49;5.60;;;2.10;;
61960;SDS011;47923;42.506;24.192;2022-11-20T09:12:14;7.20;;;1.73;;
61960;SDS011;47923;42.506;24.192;2022-11-20T09:14:40;6.35;;;1.98;;
61960;SDS011;47923;42.506;24.192;2022-11-20T09:17:06;6.32;;;2.05;;
61960;SDS011;47923;42.506;24.192;2022-11-20T09:19:32;4.63;;;1.70;;
61960;SDS011;47923;42.506;24.192;2022-11-20T09:21:58;8.60;;;1.73;;
61960;SDS011;47923;42.506;24.192;2022-11-20T09:24:25;7.75;;;2.65;;
61960;SDS011;47923;42.506;24.192;2022-11-20T09:26:51;7.13;;;1.95;;
61960;SDS011;47923;42.506;24.192;2022-11-20T09:29:17;5.53;;;1.58;;
61960;SDS011;47923;42.506;24.192;2022-11-20T09:31:43;6.05;;;1.48;;
61960;SDS011;47923;42.506;24.192;2022-11-20T09:34:10;4.78;;;1.70;;
61960;SDS011;47923;42.506;24.192;2022-11-20T09:36:35;6.25;;;1.70;;
61960;SDS011;47923;42.506;24.192;2022-11-20T09:39:01;5.63;;;1.02;;
61960;SDS011;47923;42.506;24.192;2022-11-20T09:41:36;5.82;;;1.58;;
61960;SDS011;47923;42.506;24.192;2022-11-20T09:46:52;5.75;;;2.13;;
61960;SDS011;47923;42.506;24.192;2022-11-20T09:49:32;6.75;;;1.90;;
61960;SDS011;47923;42.506;24.192;2022-11-20T09:52:37;7.93;;;1.80;;
61960;SDS011;47923;42.506;24.192;2022-11-20T09:55:06;8.50;;;2.08;;
61960;SDS011;47923;42.506;24.192;2022-11-20T09:57:36;8.07;;;2.15;;
61960;SDS011;47923;42.506;24.192;2022-11-20T10:00:04;6.97;;;1.92;;
61960;SDS011;47923;42.506;24.192;2022-11-20T10:05:18;5.22;;;1.63;;
61960;SDS011;47923;42.506;24.192;2022-11-20T10:16:09;8.07;;;2.00;;
61960;SDS011;47923;42.506;24.192;2022-11-20T10:27:15;6.13;;;1.83;;
61960;SDS011;47923;42.506;24.192;2022-11-20T10:29:39;7.38;;;1.95;;
61960;SDS011;47923;42.506;24.192;2022-11-20T10:32:14;7.50;;;2.13;;
61960;SDS011;47923;42.506;24.192;2022-11-20T10:34:46;7.15;;;1.70;;
61960;SDS011;47923;42.506;24.192;2022-11-20T10:37:18;12.27;;;3.60;;
61960;SDS011;47923;42.506;24.192;2022-11-20T10:39:51;11.80;;;4.53;;
61960;SDS011;47923;42.506;24.192;2022-11-20T10:42:45;9.57;;;3.17;;
61960;SDS011;47923;42.506;24.192;2022-11-20T10:47:54;13.15;;;3.80;;
61960;SDS011;47923;42.506;24.192;2022-11-20T10:50:33;6.82;;;1.73;;
61960;SDS011;47923;42.506;24.192;2022-11-20T10:55:55;9.70;;;3.13;;
61960;SDS011;47923;42.506;24.192;2022-11-20T11:01:14;7.18;;;2.53;;
61960;SDS011;47923;42.506;24.192;2022-11-20T11:03:43;8.15;;;2.30;;
61960;SDS011;47923;42.506;24.192;2022-11-20T11:06:12;6.53;;;2.03;;
61960;SDS011;47923;42.506;24.192;2022-11-20T11:08:40;12.27;;;5.90;;
61960;SDS011;47923;42.506;24.192;2022-11-20T11:11:21;10.27;;;4.13;;
61960;SDS011;47923;42.506;24.192;2022-11-20T11:14:06;13.00;;;6.55;;
61960;SDS011;47923;42.506;24.192;2022-11-20T11:16:33;6.75;;;2.28;;
61960;SDS011;47923;42.506;24.192;2022-11-20T11:19:05;8.98;;;2.50;;
61960;SDS011;47923;42.506;24.192;2022-11-20T11:21:36;5.63;;;1.80;;
61960;SDS011;47923;42.506;24.192;2022-11-20T11:24:14;11.43;;;3.30;;
61960;SDS011;47923;42.506;24.192;2022-11-20T11:26:58;11.10;;;3.13;;
61960;SDS011;47923;42.506;24.192;2022-11-20T11:29:30;10.88;;;2.60;;
61960;SDS011;47923;42.506;24.192;2022-11-20T11:32:06;9.43;;;3.38;;
61960;SDS011;47923;42.506;24.192;2022-11-20T11:34:34;9.27;;;2.85;;
61960;SDS011;47923;42.506;24.192;2022-11-20T11:37:00;12.38;;;4.07;;
61960;SDS011;47923;42.506;24.192;2022-11-20T11:39:28;9.40;;;2.97;;
61960;SDS011;47923;42.506;24.192;2022-11-20T11:42:07;8.93;;;3.40;;
61960;SDS011;47923;42.506;24.192;2022-11-20T11:44:43;9.77;;;2.85;;
61960;SDS011;47923;42.506;24.192;2022-11-20T11:47:31;8.85;;;1.77;;
61960;SDS011;47923;42.506;24.192;2022-11-20T11:53:18;9.82;;;2.28;;
61960;SDS011;47923;42.506;24.192;2022-11-20T11:55:57;8.98;;;3.03;;
61960;SDS011;47923;42.506;24.192;2022-11-20T11:58:49;9.02;;;2.60;;
61960;SDS011;47923;42.506;24.192;2022-11-20T12:06:39;9.13;;;3.45;;
61960;SDS011;47923;42.506;24.192;2022-11-20T12:09:10;11.15;;;3.00;;
61960;SDS011;47923;42.506;24.192;2022-11-20T12:14:40;14.18;;;5.55;;
61960;SDS011;47923;42.506;24.192;2022-11-20T12:17:12;12.60;;;5.72;;
61960;SDS011;47923;42.506;24.192;2022-11-20T12:19:39;11.02;;;3.60;;
61960;SDS011;47923;42.506;24.192;2022-11-20T12:25:10;10.65;;;3.25;;
61960;SDS011;47923;42.506;24.192;2022-11-20T12:30:41;8.98;;;3.92;;
61960;SDS011;47923;42.506;24.192;2022-11-20T12:33:33;14.98;;;6.38;;
61960;SDS011;47923;42.506;24.192;2022-11-20T12:41:26;16.90;;;6.07;;
61960;SDS011;47923;42.506;24.192;2022-11-20T12:47:21;14.55;;;4.38;;
61960;SDS011;47923;42.506;24.192;2022-11-20T12:52:41;13.00;;;5.38;;
61960;SDS011;47923;42.506;24.192;2022-11-20T13:07:01;13.73;;;4.25;;
61960;SDS011;47923;42.506;24.192;2022-11-20T13:09:30;16.77;;;6.80;;
61960;SDS011;47923;42.506;24.192;2022-11-20T13:12:01;15.07;;;5.70;;
61960;SDS011;47923;42.506;24.192;2022-11-20T13:14:33;15.10;;;5.72;;
61960;SDS011;47923;42.506;24.192;2022-11-20T13:17:11;22.48;;;9.35;;
61960;SDS011;47923;42.506;24.192;2022-11-20T13:19:48;10.55;;;3.30;;
61960;SDS011;47923;42.506;24.192;2022-11-20T13:25:30;9.85;;;4.13;;
61960;SDS011;47923;42.506;24.192;2022-11-20T13:28:01;11.70;;;4.50;;
61960;SDS011;47923;42.506;24.192;2022-11-20T13:30:35;9.60;;;4.32;;
61960;SDS011;47923;42.506;24.192;2022-11-20T13:33:06;12.52;;;4.35;;
61960;SDS011;47923;42.506;24.192;2022-11-20T13:35:35;9.27;;;4.82;;
61960;SDS011;47923;42.506;24.192;2022-11-20T13:40:36;9.73;;;3.40;;
61960;SDS011;47923;42.506;24.192;2022-11-20T13:46:07;8.93;;;3.83;;
61960;SDS011;47923;42.506;24.192;2022-11-20T13:54:01;12.10;;;7.10;;
61960;SDS011;47923;42.506;24.192;2022-11-20T13:59:10;10.20;;;5.50;;
61960;SDS011;47923;42.506;24.192;2022-11-20T14:01:55;8.05;;;3.97;;
61960;SDS011;47923;42.506;24.192;2022-11-20T14:04:25;13.40;;;7.03;;
61960;SDS011;47923;42.506;24.192;2022-11-20T14:06:54;7.93;;;3.00;;
61960;SDS011;47923;42.506;24.192;2022-11-20T14:09:30;14.95;;;6.82;;
61960;SDS011;47923;42.506;24.192;2022-11-20T14:11:57;24.65;;;10.88;;
61960;SDS011;47923;42.506;24.192;2022-11-20T14:14:24;8.52;;;3.47;;
61960;SDS011;47923;42.506;24.192;2022-11-20T14:16:51;8.80;;;3.50;;
61960;SDS011;47923;42.506;24.192;2022-11-20T14:21:53;10.93;;;5.63;;
61960;SDS011;47923;42.506;24.192;2022-11-20T14:24:31;7.35;;;4.88;;
61960;SDS011;47923;42.506;24.192;2022-11-20T14:26:57;9.35;;;4.10;;
61960;SDS011;47923;42.506;24.192;2022-11-20T14:29:26;15.63;;;7.70;;
61960;SDS011;47923;42.506;24.192;2022-11-20T14:32:00;23.85;;;13.23;;
61960;SDS011;47923;42.506;24.192;2022-11-20T14:34:28;34.40;;;17.25;;
61960;SDS011;47923;42.506;24.192;2022-11-20T14:36:59;56.65;;;27.25;;
61960;SDS011;47923;42.506;24.192;2022-11-20T14:39:34;25.45;;;12.52;;
61960;SDS011;47923;42.506;24.192;2022-11-20T14:42:01;20.27;;;9.93;;
61960;SDS011;47923;42.506;24.192;2022-11-20T14:44:30;22.05;;;10.55;;
61960;SDS011;47923;42.506;24.192;2022-11-20T14:47:03;26.40;;;11.32;;
61960;SDS011;47923;42.506;24.192;2022-11-20T14:49:29;16.27;;;9.07;;
61960;SDS011;47923;42.506;24.192;2022-11-20T14:52:00;35.88;;;19.58;;
61960;SDS011;47923;42.506;24.192;2022-11-20T14:54:27;28.17;;;15.82;;
61960;SDS011;47923;42.506;24.192;2022-11-20T14:59:28;34.45;;;19.15;;
61960;SDS011;47923;42.506;24.192;2022-11-20T15:02:08;32.40;;;14.90;;
61960;SDS011;47923;42.506;24.192;2022-11-20T15:04:49;33.08;;;18.88;;
61960;SDS011;47923;42.506;24.192;2022-11-20T15:07:29;34.33;;;19.08;;
61960;SDS011;47923;42.506;24.192;2022-11-20T15:10:09;62.50;;;39.33;;
61960;SDS011;47923;42.506;24.192;2022-11-20T15:12:40;124.07;;;66.97;;
61960;SDS011;47923;42.506;24.192;2022-11-20T15:15:15;69.78;;;40.58;;
61960;SDS011;47923;42.506;24.192;2022-11-20T15:17:45;82.72;;;44.85;;
61960;SDS011;47923;42.506;24.192;2022-11-20T15:20:13;74.78;;;44.50;;
61960;SDS011;47923;42.506;24.192;2022-11-20T15:22:41;74.30;;;47.58;;
61960;SDS011;47923;42.506;24.192;2022-11-20T15:25:17;67.20;;;42.60;;
61960;SDS011;47923;42.506;24.192;2022-11-20T15:27:44;93.32;;;60.88;;
61960;SDS011;47923;42.506;24.192;2022-11-20T15:30:15;72.20;;;46.30;;
61960;SDS011;47923;42.506;24.192;2022-11-20T15:32:42;70.90;;;50.90;;
61960;SDS011;47923;42.506;24.192;2022-11-20T15:35:08;77.60;;;53.47;;
61960;SDS011;47923;42.506;24.192;2022-11-20T15:37:35;79.05;;;54.20;;
61960;SDS011;47923;42.506;24.192;2022-11-20T15:40:01;78.85;;;56.33;;
61960;SDS011;47923;42.506;24.192;2022-11-20T15:42:26;75.28;;;54.63;;
61960;SDS011;47923;42.506;24.192;2022-11-20T15:44:52;80.00;;;55.70;;
61960;SDS011;47923;42.506;24.192;2022-11-20T15:47:18;75.68;;;51.33;;
61960;SDS011;47923;42.506;24.192;2022-11-20T15:49:47;89.95;;;53.35;;
61960;SDS011;47923;42.506;24.192;2022-11-20T15:52:13;71.63;;;47.08;;
61960;SDS011;47923;42.506;24.192;2022-11-20T15:54:40;65.15;;;44.08;;
61960;SDS011;47923;42.506;24.192;2022-11-20T15:57:08;72.28;;;53.58;;
61960;SDS011;47923;42.506;24.192;2022-11-20T15:59:34;60.88;;;43.55;;
61960;SDS011;47923;42.506;24.192;2022-11-20T16:02:08;63.45;;;42.00;;
61960;SDS011;47923;42.506;24.192;2022-11-20T16:04:37;64.25;;;44.85;;
61960;SDS011;47923;42.506;24.192;2022-11-20T16:07:03;56.42;;;40.53;;
61960;SDS011;47923;42.506;24.192;2022-11-20T16:09:29;52.60;;;37.65;;